Time;durP1;ratioP1;P1;durP2;ratioP2;P2;SDS_P1;SDS_P2;PMS_P1;PMS_P2;Temp;Humidity;BMP_temperature;BMP_pressure;BME280_temperature;BME280_humidity;BME280_pressure;Samples;Min_cycle;Max_cycle;Signal;HPM_P1;HPM_P2
2021/08/11 00:00:53;;;;;;;;;;;24.90;47.50;;;;;;1577603;75;748;-74
2021/08/11 00:02:54;;;;;;;;;;;24.80;47.40;;;;;;1571166;75;814;-73
2021/08/11 00:04:56;;;;;;;;;;;24.80;47.30;;;;;;1579672;75;827;-73
2021/08/11 00:06:58;;;;;;;;;;;24.90;47.40;;;;;;1569382;75;1133;-73
2021/08/11 00:09:02;;;;;;;;;;;24.80;47.30;;;;;;1573376;73;759;-74
2021/08/11 00:11:04;;;;;;;;;;;24.90;47.50;;;;;;1587201;75;1482;-74
2021/08/11 00:13:05;;;;;;;;;;;24.80;47.40;;;;;;1587650;75;814;-74
2021/08/11 00:15:07;;;;;;;;;;;24.80;47.30;;;;;;1576662;75;725;-74
2021/08/11 00:17:09;;;;;;;;;;;24.90;47.40;;;;;;1571682;75;1112;-73
2021/08/11 00:19:11;;;;;;;;;;;24.80;47.40;;;;;;1582032;75;1999;-71
2021/08/11 00:21:13;;;;;;;;;;;24.90;47.50;;;;;;1575780;75;719;-74
2021/08/11 00:23:15;;;;;;;;;;;24.80;47.30;;;;;;1569436;75;795;-71
2021/08/11 00:25:17;;;;;;;;;;;24.80;47.30;;;;;;1570808;75;1133;-73
2021/08/11 00:27:19;;;;;;;;;;;24.80;47.30;;;;;;1571688;75;798;-73
2021/08/11 00:29:21;;;;;;;;;;;24.80;47.40;;;;;;1575749;75;720;-74
2021/08/11 00:31:22;;;;;;;;;;;24.80;47.50;;;;;;1582263;75;738;-74
2021/08/11 00:33:24;;;;;;;;;;;24.80;47.50;;;;;;1574630;75;795;-72
2021/08/11 00:35:26;;;;;;;;;;;24.80;47.50;;;;;;1574695;73;1092;-73
2021/08/11 00:37:28;;;;;;;;;;;24.80;47.60;;;;;;1573204;75;1934;-73
2021/08/11 00:39:30;;;;;;;;;;;24.80;47.60;;;;;;1577373;75;933;-73
2021/08/11 00:41:32;;;;;;;;;;;24.80;47.50;;;;;;1576274;75;735;-74
2021/08/11 00:43:34;;;;;;;;;;;24.80;47.50;;;;;;1564632;75;770;-73
2021/08/11 00:45:36;;;;;;;;;;;24.80;47.50;;;;;;1572953;73;1130;-74
2021/08/11 00:47:38;;;;;;;;;;;24.80;47.60;;;;;;1582372;75;574;-73
2021/08/11 00:49:40;;;;;;;;;;;24.80;47.70;;;;;;1566497;75;775;-72
2021/08/11 00:51:42;;;;;;;;;;;24.80;47.60;;;;;;1575517;75;759;-73
2021/08/11 00:53:44;;;;;;;;;;;24.80;47.70;;;;;;1579682;75;777;-72
2021/08/11 00:55:46;;;;;;;;;;;24.80;47.80;;;;;;1572262;75;1163;-72
2021/08/11 00:57:49;;;;;;;;;;;24.80;47.90;;;;;;1577899;75;1929;-71
2021/08/11 00:59:51;;;;;;;;;;;24.90;48.00;;;;;;1572549;75;774;-72
2021/08/11 01:01:52;;;;;;;;;;;24.80;47.90;;;;;;1575191;75;748;-73
2021/08/11 01:03:54;;;;;;;;;;;24.90;48.00;;;;;;1573466;75;704;-73
2021/08/11 01:05:58;;;;;;;;;;;24.80;47.90;;;;;;1577589;73;1146;-71
2021/08/11 01:08:00;;;;;;;;;;;24.80;47.90;;;;;;1571895;75;1132;-71
2021/08/11 01:10:03;;;;;;;;;;;24.90;48.00;;;;;;1568477;75;829;-71
2021/08/11 01:12:05;;;;;;;;;;;24.80;47.90;;;;;;1574595;75;741;-74
2021/08/11 01:14:07;;;;;;;;;;;24.80;47.90;;;;;;1577320;75;662;-75
2021/08/11 01:16:09;;;;;;;;;;;24.80;47.90;;;;;;1560015;75;1133;-74
2021/08/11 01:18:11;;;;;;;;;;;24.90;48.00;;;;;;1580510;75;1942;-74
2021/08/11 01:20:13;;;;;;;;;;;24.80;47.90;;;;;;1579606;75;942;-75
2021/08/11 01:22:16;;;;;;;;;;;24.80;47.90;;;;;;1565800;75;741;-75
2021/08/11 01:24:28;;;;;;;;;;;24.90;47.90;;;;;;1573267;75;956;-74
2021/08/11 01:26:50;;;;;;;;;;;24.90;47.90;;;;;;1577280;74;1108;-76
2021/08/11 01:28:53;;;;;;;;;;;24.90;47.90;;;;;;1508420;77;1177;-76
2021/08/11 01:31:03;;;;;;;;;;;24.80;47.70;;;;;;1510181;77;972;-76
2021/08/11 01:33:23;;;;;;;;;;;24.80;47.70;;;;;;1510694;77;1900;-76
2021/08/11 01:35:26;;;;;;;;;;;24.90;47.80;;;;;;1568937;75;1103;-76
2021/08/11 01:37:29;;;;;;;;;;;24.80;47.80;;;;;;1573609;75;794;-76
2021/08/11 01:39:37;;;;;;;;;;;24.80;47.80;;;;;;1575969;75;1931;-75
2021/08/11 01:41:41;;;;;;;;;;;24.80;47.70;;;;;;1559534;75;731;-74
2021/08/11 01:43:44;;;;;;;;;;;24.80;47.80;;;;;;1582690;75;735;-73
2021/08/11 01:45:46;;;;;;;;;;;24.80;47.80;;;;;;1571030;75;1144;-73
2021/08/11 01:47:52;;;;;;;;;;;24.90;47.80;;;;;;1555919;75;781;-72
2021/08/11 01:49:54;;;;;;;;;;;24.90;47.90;;;;;;1565274;75;2149;-73
2021/08/11 01:51:56;;;;;;;;;;;24.80;47.80;;;;;;1551890;75;716;-75
2021/08/11 01:53:58;;;;;;;;;;;24.90;47.80;;;;;;1575524;75;810;-74
2021/08/11 01:56:00;;;;;;;;;;;24.80;47.60;;;;;;1568428;75;1141;-74
2021/08/11 01:58:02;;;;;;;;;;;24.80;47.50;;;;;;1564543;75;1905;-73
2021/08/11 02:00:05;;;;;;;;;;;24.80;47.40;;;;;;1565783;75;774;-72
2021/08/11 02:02:07;;;;;;;;;;;24.80;47.50;;;;;;1557250;75;752;-74
2021/08/11 02:04:08;;;;;;;;;;;24.80;47.50;;;;;;1571909;73;713;-73
2021/08/11 02:06:10;;;;;;;;;;;24.80;47.60;;;;;;1566280;75;1138;-74
2021/08/11 02:08:13;;;;;;;;;;;24.80;47.70;;;;;;1560146;75;720;-72
2021/08/11 02:10:15;;;;;;;;;;;24.80;47.70;;;;;;1573425;75;827;-72
2021/08/11 02:12:17;;;;;;;;;;;24.80;47.70;;;;;;1553413;75;728;-73
2021/08/11 02:14:19;;;;;;;;;;;24.80;47.70;;;;;;1574501;75;794;-73
2021/08/11 02:16:21;;;;;;;;;;;24.80;47.80;;;;;;1564365;75;1220;-71
2021/08/11 02:18:23;;;;;;;;;;;24.80;47.80;;;;;;1559375;75;1934;-73
2021/08/11 02:20:24;;;;;;;;;;;24.80;47.80;;;;;;1577549;75;709;-74
2021/08/11 02:22:26;;;;;;;;;;;24.80;47.80;;;;;;1566660;75;760;-75
2021/08/11 02:24:28;;;;;;;;;;;24.80;47.70;;;;;;1570479;75;650;-75
2021/08/11 02:26:32;;;;;;;;;;;24.80;47.70;;;;;;1555191;75;1222;-73
2021/08/11 02:28:35;;;;;;;;;;;24.80;47.70;;;;;;1566383;75;923;-73
2021/08/11 02:30:42;;;;;;;;;;;24.80;47.70;;;;;;1560694;75;733;-73
2021/08/11 02:32:51;;;;;;;;;;;24.80;47.60;;;;;;1556921;75;729;-72
2021/08/11 02:35:03;;;;;;;;;;;24.80;47.60;;;;;;1564541;75;819;-73
2021/08/11 02:37:07;;;;;;;;;;;24.80;47.60;;;;;;1552756;75;1185;-73
2021/08/11 02:39:09;;;;;;;;;;;24.70;47.60;;;;;;1558384;75;1934;-75
2021/08/11 02:41:13;;;;;;;;;;;24.80;47.60;;;;;;1560936;75;692;-74
2021/08/11 02:43:22;;;;;;;;;;;24.70;47.60;;;;;;1560113;75;1046;-73
2021/08/11 02:45:23;;;;;;;;;;;24.80;47.70;;;;;;1562125;75;1177;-74
2021/08/11 02:47:25;;;;;;;;;;;24.80;47.60;;;;;;1561374;75;788;-75
2021/08/11 02:49:28;;;;;;;;;;;24.80;47.70;;;;;;1559241;75;781;-74
2021/08/11 02:51:30;;;;;;;;;;;24.80;47.60;;;;;;1559275;75;797;-74
2021/08/11 02:53:32;;;;;;;;;;;24.80;47.60;;;;;;1572755;75;761;-73
2021/08/11 02:55:36;;;;;;;;;;;24.70;47.60;;;;;;1552101;75;1117;-73
2021/08/11 02:57:38;;;;;;;;;;;24.80;47.60;;;;;;1569495;75;751;-72
2021/08/11 02:59:40;;;;;;;;;;;24.80;47.50;;;;;;1563148;75;1931;-74
2021/08/11 03:01:42;;;;;;;;;;;24.70;47.60;;;;;;1566259;75;668;-73
2021/08/11 03:03:44;;;;;;;;;;;24.70;47.60;;;;;;1564015;75;788;-73
2021/08/11 03:05:46;;;;;;;;;;;24.80;47.60;;;;;;1563889;73;218899;-76
2021/08/11 03:07:48;;;;;;;;;;;24.70;47.70;;;;;;1587080;74;787;-75
2021/08/11 03:09:50;;;;;;;;;;;24.70;47.60;;;;;;1578898;73;973;-75
2021/08/11 03:11:52;;;;;;;;;;;24.70;47.50;;;;;;1590197;74;751;-76
2021/08/11 03:13:55;;;;;;;;;;;24.80;47.50;;;;;;1575721;73;724;-77
2021/08/11 03:15:56;;;;;;;;;;;24.80;47.50;;;;;;1603468;72;1179;-77
2021/08/11 03:17:59;;;;;;;;;;;24.70;47.50;;;;;;1619275;72;706;-77
2021/08/11 03:20:00;;;;;;;;;;;24.70;47.60;;;;;;1610469;72;1974;-76
2021/08/11 03:22:02;;;;;;;;;;;24.70;47.60;;;;;;1604301;72;705;-76
2021/08/11 03:24:05;;;;;;;;;;;24.70;47.50;;;;;;1616902;72;930;-78
2021/08/11 03:26:06;;;;;;;;;;;24.70;47.60;;;;;;1612589;72;1065;-78
2021/08/11 03:28:09;;;;;;;;;;;24.70;47.60;;;;;;1615070;72;688;-78
2021/08/11 03:30:12;;;;;;;;;;;24.80;47.70;;;;;;1616050;72;821;-77
2021/08/11 03:32:14;;;;;;;;;;;24.70;47.70;;;;;;1611458;72;866;-78
2021/08/11 03:34:15;;;;;;;;;;;24.70;47.60;;;;;;1613387;72;1133;-77
2021/08/11 03:36:18;;;;;;;;;;;24.80;47.60;;;;;;1621871;72;807;-77
2021/08/11 03:38:20;;;;;;;;;;;24.70;47.50;;;;;;1608775;72;833;-78
2021/08/11 03:40:22;;;;;;;;;;;24.80;47.50;;;;;;1619371;72;1934;-80
2021/08/11 03:42:24;;;;;;;;;;;24.80;47.80;;;;;;1603658;73;804;-80
2021/08/11 03:44:26;;;;;;;;;;;24.70;47.80;;;;;;1601615;72;1189;-80
2021/08/11 03:46:30;;;;;;;;;;;24.70;48.00;;;;;;1615216;72;583;-81
2021/08/11 03:48:31;;;;;;;;;;;24.70;48.10;;;;;;1608609;72;1700;-80
2021/08/11 03:50:33;;;;;;;;;;;24.70;48.20;;;;;;1609754;72;804;-80
2021/08/11 03:52:35;;;;;;;;;;;24.70;48.30;;;;;;1604184;72;727;-80
2021/08/11 03:54:37;;;;;;;;;;;24.70;48.30;;;;;;1614041;72;1139;-80
2021/08/11 03:56:38;;;;;;;;;;;24.70;48.40;;;;;;1622463;72;757;-80
2021/08/11 03:58:40;;;;;;;;;;;24.70;48.50;;;;;;1613452;72;1939;-80
2021/08/11 04:00:44;;;;;;;;;;;24.80;48.60;;;;;;1619681;72;715;-80
2021/08/11 04:02:46;;;;;;;;;;;24.80;48.50;;;;;;1609976;71;228952;-60
2021/08/11 04:04:48;;;;;;;;;;;24.70;48.70;;;;;;1574011;73;751;-59
2021/08/11 04:06:49;;;;;;;;;;;24.70;48.70;;;;;;1572705;73;793;-59
2021/08/11 04:08:51;;;;;;;;;;;24.70;48.80;;;;;;1569549;73;769;-58
2021/08/11 04:10:53;;;;;;;;;;;24.70;48.80;;;;;;1568904;73;648;-58
2021/08/11 04:12:55;;;;;;;;;;;24.70;48.80;;;;;;1584183;72;1206;-59
2021/08/11 04:14:57;;;;;;;;;;;24.70;48.90;;;;;;1594285;72;897;-59
2021/08/11 04:16:59;;;;;;;;;;;24.70;48.90;;;;;;1586452;72;708;-60
2021/08/11 04:19:01;;;;;;;;;;;24.70;48.90;;;;;;1600777;72;1936;-58
2021/08/11 04:21:02;;;;;;;;;;;24.70;48.90;;;;;;1597060;72;731;-59
2021/08/11 04:23:05;;;;;;;;;;;24.70;49.00;;;;;;1597456;72;1162;-60
2021/08/11 04:25:07;;;;;;;;;;;24.70;48.90;;;;;;1599325;72;808;-59
2021/08/11 04:27:09;;;;;;;;;;;24.70;48.90;;;;;;1600604;72;916;-60
2021/08/11 04:29:11;;;;;;;;;;;24.70;49.10;;;;;;1606234;72;760;-58
2021/08/11 04:31:12;;;;;;;;;;;24.70;49.10;;;;;;1598430;72;778;-59
2021/08/11 04:33:14;;;;;;;;;;;24.80;49.00;;;;;;1592513;72;1050;-60
2021/08/11 04:35:16;;;;;;;;;;;24.70;49.10;;;;;;1580793;72;755;-60
2021/08/11 04:37:18;;;;;;;;;;;24.70;49.10;;;;;;1590898;72;788;-59
2021/08/11 04:39:20;;;;;;;;;;;24.70;49.10;;;;;;1588359;72;1935;-60
2021/08/11 04:41:22;;;;;;;;;;;24.70;49.20;;;;;;1598691;72;777;-59
2021/08/11 04:43:24;;;;;;;;;;;24.70;49.20;;;;;;1590103;72;1164;-60
2021/08/11 04:45:26;;;;;;;;;;;24.70;49.20;;;;;;1585136;72;781;-60
2021/08/11 04:47:27;;;;;;;;;;;24.70;49.20;;;;;;1586594;73;783;-60
2021/08/11 04:49:29;;;;;;;;;;;24.70;49.20;;;;;;1587505;72;776;-60
2021/08/11 04:51:31;;;;;;;;;;;24.70;49.40;;;;;;1583414;72;843;-60
2021/08/11 04:53:33;;;;;;;;;;;24.70;49.30;;;;;;1586507;74;1127;-59
2021/08/11 04:55:35;;;;;;;;;;;24.70;49.30;;;;;;1588707;72;819;-60
2021/08/11 04:57:37;;;;;;;;;;;24.70;49.20;;;;;;1585146;72;762;-59
2021/08/11 04:59:39;;;;;;;;;;;24.70;49.30;;;;;;1588812;72;1935;-58
2021/08/11 05:01:41;;;;;;;;;;;24.70;49.30;;;;;;1592595;72;773;-59
2021/08/11 05:03:42;;;;;;;;;;;24.80;49.30;;;;;;1597749;72;1146;-58
2021/08/11 05:05:44;;;;;;;;;;;24.80;49.40;;;;;;1592436;72;692;-59
2021/08/11 05:07:46;;;;;;;;;;;24.80;49.30;;;;;;1600940;72;739;-60
2021/08/11 05:09:48;;;;;;;;;;;24.70;49.40;;;;;;1595864;72;718;-60
2021/08/11 05:11:50;;;;;;;;;;;24.80;49.40;;;;;;1601403;74;720;-60
2021/08/11 05:13:52;;;;;;;;;;;24.80;49.30;;;;;;1605956;72;1093;-60
2021/08/11 05:15:54;;;;;;;;;;;24.80;49.30;;;;;;1594657;72;766;-59
2021/08/11 05:17:56;;;;;;;;;;;24.80;49.30;;;;;;1605636;72;723;-59
2021/08/11 05:19:57;;;;;;;;;;;24.80;49.30;;;;;;1598524;72;1935;-59
2021/08/11 05:22:00;;;;;;;;;;;24.80;49.30;;;;;;1609701;72;720;-60
2021/08/11 05:24:02;;;;;;;;;;;24.80;49.40;;;;;;1606566;72;1103;-60
2021/08/11 05:26:04;;;;;;;;;;;24.80;49.40;;;;;;1592108;72;741;-60
2021/08/11 05:28:06;;;;;;;;;;;24.70;49.40;;;;;;1575809;75;734;-60
2021/08/11 05:30:08;;;;;;;;;;;24.70;49.40;;;;;;1540749;76;928;-60
2021/08/11 05:32:10;;;;;;;;;;;24.80;49.50;;;;;;1515872;76;737;-60
2021/08/11 05:34:12;;;;;;;;;;;24.80;49.50;;;;;;1535063;75;1137;-60
2021/08/11 05:36:14;;;;;;;;;;;24.80;49.60;;;;;;1538096;76;737;-60
2021/08/11 05:38:16;;;;;;;;;;;24.80;49.60;;;;;;1535920;76;740;-60
2021/08/11 05:40:18;;;;;;;;;;;24.70;49.60;;;;;;1612628;72;1931;-59
2021/08/11 05:42:20;;;;;;;;;;;24.70;49.70;;;;;;1582524;72;1135;-60
2021/08/11 05:44:22;;;;;;;;;;;24.80;49.60;;;;;;1602898;73;756;-60
2021/08/11 05:46:24;;;;;;;;;;;24.80;49.70;;;;;;1599985;72;767;-59
2021/08/11 05:48:26;;;;;;;;;;;24.80;49.70;;;;;;1603916;72;767;-60
2021/08/11 05:50:28;;;;;;;;;;;24.80;49.70;;;;;;1593678;72;776;-60
2021/08/11 05:52:30;;;;;;;;;;;24.80;49.80;;;;;;1588462;72;1106;-59
2021/08/11 05:54:33;;;;;;;;;;;24.80;49.80;;;;;;1600919;73;711;-59
2021/08/11 05:56:35;;;;;;;;;;;24.80;49.70;;;;;;1592734;72;1823;-61
2021/08/11 05:58:37;;;;;;;;;;;24.90;50.10;;;;;;1608622;72;801;-61
2021/08/11 06:00:39;;;;;;;;;;;25.00;49.40;;;;;;1595462;72;1936;-61
2021/08/11 06:02:41;;;;;;;;;;;25.00;48.80;;;;;;1589104;73;1088;-60
2021/08/11 06:04:43;;;;;;;;;;;25.00;48.60;;;;;;1594623;72;812;-60
2021/08/11 06:06:45;;;;;;;;;;;25.00;48.50;;;;;;1592651;72;661;-62
2021/08/11 06:08:46;;;;;;;;;;;24.80;48.40;;;;;;1592257;72;724;-60
2021/08/11 06:10:48;;;;;;;;;;;24.80;48.50;;;;;;1595914;74;754;-60
2021/08/11 06:12:53;;;;;;;;;;;24.80;48.60;;;;;;1591836;72;1118;-60
2021/08/11 06:14:54;;;;;;;;;;;24.80;48.60;;;;;;1601777;73;1437;-60
2021/08/11 06:16:56;;;;;;;;;;;24.80;48.70;;;;;;1595661;72;812;-61
2021/08/11 06:18:58;;;;;;;;;;;24.80;48.70;;;;;;1607583;72;714;-60
2021/08/11 06:21:00;;;;;;;;;;;24.80;48.70;;;;;;1609827;72;1920;-61
2021/08/11 06:23:02;;;;;;;;;;;24.80;48.80;;;;;;1595464;72;1152;-61
2021/08/11 06:25:04;;;;;;;;;;;24.70;48.80;;;;;;1591012;72;800;-61
2021/08/11 06:27:06;;;;;;;;;;;24.80;48.90;;;;;;1605224;72;785;-61
2021/08/11 06:29:08;;;;;;;;;;;24.70;48.90;;;;;;1603366;72;760;-62
2021/08/11 06:31:13;;;;;;;;;;;24.70;48.90;;;;;;1597126;72;739;-60
2021/08/11 06:33:14;;;;;;;;;;;24.70;49.00;;;;;;1602582;72;1546;-60
2021/08/11 06:35:15;;;;;;;;;;;24.70;49.00;;;;;;1600798;72;792;-60
2021/08/11 06:37:18;;;;;;;;;;;24.80;49.10;;;;;;1593000;74;744;-61
2021/08/11 06:39:20;;;;;;;;;;;24.70;49.10;;;;;;1599423;72;845;-60
2021/08/11 06:41:22;;;;;;;;;;;24.70;49.10;;;;;;1600055;74;1936;-60
2021/08/11 06:43:24;;;;;;;;;;;24.70;49.20;;;;;;1588949;72;1138;-60
2021/08/11 06:45:26;;;;;;;;;;;24.70;49.30;;;;;;1601404;72;761;-60
2021/08/11 06:47:28;;;;;;;;;;;24.70;49.20;;;;;;1606743;72;711;-60
2021/08/11 06:49:30;;;;;;;;;;;24.70;49.20;;;;;;1604658;72;873;-60
2021/08/11 06:51:31;;;;;;;;;;;24.70;49.30;;;;;;1602296;72;727;-60
2021/08/11 06:53:33;;;;;;;;;;;24.70;49.30;;;;;;1609496;72;1146;-60
2021/08/11 06:55:35;;;;;;;;;;;24.70;49.30;;;;;;1608061;72;697;-60
2021/08/11 06:57:39;;;;;;;;;;;24.70;49.40;;;;;;1598214;72;823;-60
2021/08/11 06:59:41;;;;;;;;;;;24.70;49.40;;;;;;1605229;72;713;-60
2021/08/11 07:01:43;;;;;;;;;;;24.70;49.50;;;;;;1602140;72;1864;-60
2021/08/11 07:03:45;;;;;;;;;;;24.70;49.50;;;;;;1610737;72;1142;-60
2021/08/11 07:05:47;;;;;;;;;;;24.70;49.50;;;;;;1605393;72;787;-60
2021/08/11 07:07:49;;;;;;;;;;;24.70;49.50;;;;;;1618209;72;712;-60
2021/08/11 07:09:51;;;;;;;;;;;24.70;49.60;;;;;;1589915;72;785;-60
2021/08/11 07:11:52;;;;;;;;;;;24.70;49.70;;;;;;1588974;72;749;-60
2021/08/11 07:13:54;;;;;;;;;;;24.70;49.70;;;;;;1594534;72;1189;-60
2021/08/11 07:15:56;;;;;;;;;;;24.70;49.70;;;;;;1603339;72;788;-60
2021/08/11 07:17:58;;;;;;;;;;;24.70;49.70;;;;;;1604125;72;707;-60
2021/08/11 07:20:00;;;;;;;;;;;24.70;49.70;;;;;;1593699;72;1940;-60
2021/08/11 07:22:02;;;;;;;;;;;24.70;49.80;;;;;;1609133;72;934;-60
2021/08/11 07:24:04;;;;;;;;;;;24.80;49.80;;;;;;1611235;72;1060;-60
2021/08/11 07:26:08;;;;;;;;;;;24.80;49.80;;;;;;1610280;72;783;-60
2021/08/11 07:28:10;;;;;;;;;;;24.70;49.80;;;;;;1596330;72;906;-60
2021/08/11 07:30:12;;;;;;;;;;;24.70;49.80;;;;;;1608251;72;911;-60
2021/08/11 07:32:14;;;;;;;;;;;24.70;49.80;;;;;;1615774;72;1123;-60
2021/08/11 07:34:16;;;;;;;;;;;24.70;49.70;;;;;;1598501;73;778;-60
2021/08/11 07:36:17;;;;;;;;;;;24.80;49.70;;;;;;1621261;72;707;-60
2021/08/11 07:38:19;;;;;;;;;;;24.70;49.70;;;;;;1594901;72;752;-59
2021/08/11 07:40:22;;;;;;;;;;;24.70;49.70;;;;;;1599031;72;1940;-59
2021/08/11 07:42:24;;;;;;;;;;;24.80;49.70;;;;;;1601979;72;1133;-59
2021/08/11 07:44:25;;;;;;;;;;;24.80;49.70;;;;;;1593873;72;741;-59
2021/08/11 07:46:27;;;;;;;;;;;24.80;49.60;;;;;;1601349;72;773;-60
2021/08/11 07:48:29;;;;;;;;;;;24.80;49.60;;;;;;1601955;72;788;-60
2021/08/11 07:50:32;;;;;;;;;;;24.80;49.60;;;;;;1615087;72;781;-60
2021/08/11 07:52:34;;;;;;;;;;;24.70;49.50;;;;;;1612650;72;1113;-60
2021/08/11 07:54:36;;;;;;;;;;;24.80;49.50;;;;;;1605041;72;711;-61
2021/08/11 07:56:37;;;;;;;;;;;24.80;49.50;;;;;;1605860;72;728;-61
2021/08/11 07:58:39;;;;;;;;;;;24.70;49.50;;;;;;1599626;72;737;-59
2021/08/11 08:00:41;;;;;;;;;;;24.80;49.50;;;;;;1589948;72;1945;-61
2021/08/11 08:02:43;;;;;;;;;;;24.80;49.50;;;;;;1611862;72;1119;-60
2021/08/11 08:04:45;;;;;;;;;;;24.80;49.40;;;;;;1588346;72;608;-60
2021/08/11 08:06:47;;;;;;;;;;;24.80;49.40;;;;;;1605034;72;787;-60
2021/08/11 08:08:49;;;;;;;;;;;24.80;49.40;;;;;;1596313;72;814;-60
2021/08/11 08:10:51;;;;;;;;;;;24.80;49.40;;;;;;1600078;72;703;-60
2021/08/11 08:12:53;;;;;;;;;;;24.70;49.40;;;;;;1596527;72;1192;-59
2021/08/11 08:14:54;;;;;;;;;;;24.80;49.40;;;;;;1594384;72;823;-60
2021/08/11 08:16:56;;;;;;;;;;;24.80;49.40;;;;;;1593895;72;687;-60
2021/08/11 08:18:58;;;;;;;;;;;24.80;49.30;;;;;;1593307;72;768;-60
2021/08/11 08:21:03;;;;;;;;;;;24.80;49.30;;;;;;1607506;72;1934;-60
2021/08/11 08:23:04;;;;;;;;;;;24.80;49.30;;;;;;1601605;72;1712;-60
2021/08/11 08:25:06;;;;;;;;;;;24.80;49.30;;;;;;1590896;72;848;-60
2021/08/11 08:27:08;;;;;;;;;;;24.80;49.30;;;;;;1600848;72;736;-60
2021/08/11 08:29:09;;;;;;;;;;;24.80;49.20;;;;;;1595338;72;688;-60
2021/08/11 08:31:11;;;;;;;;;;;24.80;49.30;;;;;;1603530;72;716;-60
2021/08/11 08:33:13;;;;;;;;;;;24.80;49.30;;;;;;1594710;72;1147;-60
2021/08/11 08:35:16;;;;;;;;;;;24.80;49.20;;;;;;1610342;72;673;-60
2021/08/11 08:37:30;;;;;;;;;;;24.80;49.20;;;;;;1610938;72;650;-60
2021/08/11 08:39:32;;;;;;;;;;;24.80;49.30;;;;;;1605139;72;762;-60
2021/08/11 08:41:34;;;;;;;;;;;24.90;49.30;;;;;;1612455;72;1930;-60
2021/08/11 08:43:36;;;;;;;;;;;24.80;49.30;;;;;;1599525;72;1149;-61
2021/08/11 08:45:38;;;;;;;;;;;24.90;49.40;;;;;;1600575;72;702;-62
2021/08/11 08:47:40;;;;;;;;;;;24.90;49.60;;;;;;1588805;72;783;-62
2021/08/11 08:49:42;;;;;;;;;;;24.90;49.90;;;;;;1605300;72;785;-62
2021/08/11 08:51:48;;;;;;;;;;;25.00;49.60;;;;;;1600377;72;856;-61
2021/08/11 08:53:50;;;;;;;;;;;25.00;49.90;;;;;;1606891;72;1096;-60
2021/08/11 08:55:52;;;;;;;;;;;25.00;49.40;;;;;;1615605;72;920;-60
2021/08/11 08:57:54;;;;;;;;;;;25.00;49.90;;;;;;1595696;72;773;-60
2021/08/11 08:59:56;;;;;;;;;;;25.00;49.60;;;;;;1612025;72;780;-60
2021/08/11 09:01:58;;;;;;;;;;;25.10;49.60;;;;;;1597769;72;1931;-60
2021/08/11 09:04:00;;;;;;;;;;;25.10;49.20;;;;;;1606145;72;1081;-61
2021/08/11 09:06:02;;;;;;;;;;;25.30;48.60;;;;;;1607415;72;782;-60
2021/08/11 09:08:04;;;;;;;;;;;25.30;48.60;;;;;;1549781;73;218885;-70
2021/08/11 09:10:12;;;;;;;;;;;25.40;48.20;;;;;;1551439;74;728;-69
2021/08/11 09:12:18;;;;;;;;;;;25.40;48.10;;;;;;1562426;74;733;-70
2021/08/11 09:14:21;;;;;;;;;;;25.40;48.10;;;;;;1555285;74;930;-72
2021/08/11 09:16:23;;;;;;;;;;;25.40;47.80;;;;;;1573865;73;1215;-74
2021/08/11 09:18:30;;;;;;;;;;;25.30;47.60;;;;;;1592966;73;622;-72
2021/08/11 09:20:29;;;;;;;;;;;25.40;47.50;;;;;;1575170;73;1172;-72
2021/08/11 09:22:33;;;;;;;;;;;25.50;47.40;;;;;;1598590;73;1956;-73
2021/08/11 09:24:37;;;;;;;;;;;25.40;47.30;;;;;;1569703;73;1686;-72
2021/08/11 09:26:39;;;;;;;;;;;25.50;47.30;;;;;;1608612;73;1115;-71
2021/08/11 09:28:42;;;;;;;;;;;25.40;47.10;;;;;;1579721;73;794;-74
2021/08/11 09:30:44;;;;;;;;;;;25.50;46.90;;;;;;1586499;73;702;-72
2021/08/11 09:32:49;;;;;;;;;;;25.50;46.90;;;;;;1588541;73;806;-74
2021/08/11 09:34:53;;;;;;;;;;;25.50;46.70;;;;;;1591139;73;792;-71
2021/08/11 09:36:56;;;;;;;;;;;25.50;46.80;;;;;;1588661;73;1691;-77
2021/08/11 09:39:00;;;;;;;;;;;25.50;46.80;;;;;;1585389;73;669;-70
2021/08/11 09:41:02;;;;;;;;;;;25.50;46.50;;;;;;1593472;73;1925;-73
2021/08/11 09:43:07;;;;;;;;;;;25.50;46.70;;;;;;1583250;73;704;-71
2021/08/11 09:45:09;;;;;;;;;;;25.40;46.20;;;;;;1595753;73;773;-73
2021/08/11 09:47:12;;;;;;;;;;;25.40;46.60;;;;;;1582122;73;1139;-72
2021/08/11 09:49:19;;;;;;;;;;;25.40;46.80;;;;;;1585572;73;755;-73
2021/08/11 09:51:20;;;;;;;;;;;25.50;46.70;;;;;;1605203;73;1756;-74
2021/08/11 09:53:27;;;;;;;;;;;25.40;46.70;;;;;;1598992;73;757;-72
2021/08/11 09:55:29;;;;;;;;;;;25.30;46.90;;;;;;1600191;73;820;-74
2021/08/11 09:57:31;;;;;;;;;;;25.40;46.90;;;;;;1581162;73;1122;-75
2021/08/11 09:59:32;;;;;;;;;;;25.40;46.80;;;;;;1599819;73;794;-74
2021/08/11 10:01:34;;;;;;;;;;;25.40;46.90;;;;;;1570875;74;1920;-74
2021/08/11 10:03:38;;;;;;;;;;;25.40;47.00;;;;;;1581016;73;729;-73
2021/08/11 10:05:40;;;;;;;;;;;25.40;47.00;;;;;;1573196;73;971;-72
2021/08/11 10:07:43;;;;;;;;;;;25.50;47.00;;;;;;1574700;73;1207;-71
2021/08/11 10:09:47;;;;;;;;;;;25.50;47.00;;;;;;1577469;73;1786;-73
2021/08/11 10:11:53;;;;;;;;;;;25.60;46.90;;;;;;1576019;73;1150;-72
2021/08/11 10:13:54;;;;;;;;;;;25.60;46.80;;;;;;1582065;73;819;-72
2021/08/11 10:15:56;;;;;;;;;;;25.60;46.80;;;;;;1590662;73;723;-71
2021/08/11 10:17:58;;;;;;;;;;;25.50;46.90;;;;;;1585456;73;1131;-76
2021/08/11 10:20:01;;;;;;;;;;;25.50;47.00;;;;;;1582818;73;795;-74
2021/08/11 10:22:14;;;;;;;;;;;25.50;46.90;;;;;;1589346;73;1931;-72
2021/08/11 10:24:13;;;;;;;;;;;25.50;47.00;;;;;;1576806;73;1685;-73
2021/08/11 10:26:15;;;;;;;;;;;25.50;46.80;;;;;;1591950;73;1130;-72
2021/08/11 10:28:18;;;;;;;;;;;25.70;46.80;;;;;;1583521;73;730;-72
2021/08/11 10:30:20;;;;;;;;;;;25.60;46.70;;;;;;1585485;73;1805;-71
2021/08/11 10:32:23;;;;;;;;;;;25.70;46.70;;;;;;1587880;73;592;-73
2021/08/11 10:34:25;;;;;;;;;;;25.60;46.50;;;;;;1587380;73;744;-73
2021/08/11 10:36:29;;;;;;;;;;;25.70;46.70;;;;;;1594529;73;1080;-72
2021/08/11 10:38:30;;;;;;;;;;;25.60;46.70;;;;;;1588984;73;815;-73
2021/08/11 10:40:32;;;;;;;;;;;25.60;46.10;;;;;;1604312;73;717;-71
2021/08/11 10:42:34;;;;;;;;;;;25.50;45.80;;;;;;1591900;73;1928;-72
2021/08/11 10:44:36;;;;;;;;;;;25.40;46.00;;;;;;1588852;73;785;-71
2021/08/11 10:46:39;;;;;;;;;;;25.40;46.80;;;;;;1580372;73;1074;-72
2021/08/11 10:48:41;;;;;;;;;;;25.50;46.70;;;;;;1593486;73;786;-73
2021/08/11 10:50:44;;;;;;;;;;;25.50;46.60;;;;;;1599472;73;807;-72
2021/08/11 10:52:46;;;;;;;;;;;25.50;46.50;;;;;;1599324;73;733;-72
2021/08/11 10:54:50;;;;;;;;;;;25.50;46.60;;;;;;1578489;73;815;-72
2021/08/11 10:56:52;;;;;;;;;;;25.60;47.10;;;;;;1586041;73;1204;-72
2021/08/11 10:58:54;;;;;;;;;;;25.50;47.10;;;;;;1601109;73;931;-70
2021/08/11 11:00:56;;;;;;;;;;;25.60;46.80;;;;;;1583341;73;711;-72
2021/08/11 11:02:59;;;;;;;;;;;25.50;46.80;;;;;;1572696;73;1937;-72
2021/08/11 11:05:01;;;;;;;;;;;25.50;46.50;;;;;;1591951;73;771;-71
2021/08/11 11:07:14;;;;;;;;;;;25.50;46.90;;;;;;1588769;73;1152;-72
2021/08/11 11:09:22;;;;;;;;;;;25.50;47.00;;;;;;1590555;73;703;-72
2021/08/11 11:11:34;;;;;;;;;;;25.60;46.80;;;;;;1585597;73;782;-71
2021/08/11 11:13:38;;;;;;;;;;;25.50;46.80;;;;;;1576256;73;695;-69
2021/08/11 11:15:41;;;;;;;;;;;25.60;46.70;;;;;;1585889;73;780;-71
2021/08/11 11:18:02;;;;;;;;;;;25.60;46.90;;;;;;1576087;73;1131;-73
2021/08/11 11:20:08;;;;;;;;;;;25.50;46.80;;;;;;1575816;73;717;-73
2021/08/11 11:22:28;;;;;;;;;;;25.50;47.00;;;;;;1571932;73;1911;-73
2021/08/11 11:24:43;;;;;;;;;;;25.60;47.20;;;;;;1573732;73;758;-74
2021/08/11 11:26:45;;;;;;;;;;;25.50;47.60;;;;;;1559491;73;1229;-73
2021/08/11 11:28:55;;;;;;;;;;;25.50;47.70;;;;;;1580646;73;712;-73
2021/08/11 11:30:57;;;;;;;;;;;25.50;47.80;;;;;;1576415;73;725;-72
2021/08/11 11:33:17;;;;;;;;;;;25.60;48.40;;;;;;1578015;73;774;-72
2021/08/11 11:35:22;;;;;;;;;;;25.50;49.00;;;;;;1576201;73;818;-74
2021/08/11 11:37:24;;;;;;;;;;;25.50;49.20;;;;;;1578575;73;1106;-74
2021/08/11 11:39:26;;;;;;;;;;;25.50;49.30;;;;;;1585007;73;711;-74
2021/08/11 11:41:28;;;;;;;;;;;25.50;49.40;;;;;;1588388;73;1924;-74
2021/08/11 11:43:30;;;;;;;;;;;25.50;49.70;;;;;;1585087;73;844;-71
2021/08/11 11:45:48;;;;;;;;;;;25.60;49.70;;;;;;1597658;73;738;-74
2021/08/11 11:47:49;;;;;;;;;;;25.60;49.60;;;;;;1571600;73;1234;-72
2021/08/11 11:49:55;;;;;;;;;;;25.60;49.40;;;;;;1582452;73;742;-76
2021/08/11 11:51:57;;;;;;;;;;;25.70;49.50;;;;;;1570425;73;1629;-72
2021/08/11 11:54:01;;;;;;;;;;;25.60;49.50;;;;;;1583005;73;892;-70
2021/08/11 11:56:11;;;;;;;;;;;25.60;49.70;;;;;;1588301;73;1760;-72
2021/08/11 11:58:13;;;;;;;;;;;25.70;50.00;;;;;;1584184;73;1818;-72
2021/08/11 12:00:16;;;;;;;;;;;25.70;49.90;;;;;;1589853;73;705;-72
2021/08/11 12:02:20;;;;;;;;;;;25.80;49.70;;;;;;1576167;73;1938;-72
2021/08/11 12:04:25;;;;;;;;;;;25.70;49.90;;;;;;1604841;73;1808;-73
2021/08/11 12:06:36;;;;;;;;;;;25.70;49.70;;;;;;1575402;73;1167;-71
2021/08/11 12:08:38;;;;;;;;;;;25.80;49.60;;;;;;1572554;73;831;-73
2021/08/11 12:10:40;;;;;;;;;;;25.70;49.70;;;;;;1566791;73;694;-73
2021/08/11 12:12:44;;;;;;;;;;;25.80;49.60;;;;;;1581255;73;762;-73